»·PEaware :: ASA683 KLAS-KPDX

ASA683 :: KLAS-KPDX

FLIGHT INFORMATION

Flight Status: Arrived
Operator:
Alaska Airlines
More flights by this operator :: More flights under this callsign
Pilot: Jules P. (45166)
Aircraft: BOEING 737-900
(B739)
More flights by this aircraft type
Origin: KLAS Harry Reid Intl
United States
Destination: KPDX Portland Intl
United States
More flights between these airports :: More routes between these airports
Route: JOHKR3 KENNO OAL J92 YERIN SOERN TMBRS2
File this flight plan on PilotEdge
Remarks: RMK / SIMBRIEF
Altitude:
(Current/Filed)
40,000ft
Speed:
(Current/Filed)
462kts
Departed: 10-Sep-23 07:44 AM
Arrived: 10-Sep-23 09:47 AM
Distance/Time
Traveled:
662nm/2:02
Distance/Time
To Go:
Arrived

Flight Plot

Page will automatically refresh every two minutes.

Flight plan parsing failed; only flown route is shown


Map Options




Map Legend


Flown Route
Filed Route
Departure Airport
Arrival Airport
Navaid (VOR, NDB)
Fix

Horizontal Profiles

Position Reports

Time Latitude Longitude Heading Altitude Ground
Speed
10-Sep-23 07:05 36.085268 -115.140555 0 2189ft 0kts
10-Sep-23 07:06 36.085268 -115.140555 0 2189ft 0kts
10-Sep-23 07:07 36.085268 -115.140555 0 2189ft 0kts
10-Sep-23 07:08 36.085268 -115.140555 0 2189ft 0kts
10-Sep-23 07:08 36.085268 -115.140555 0 2189ft 0kts
10-Sep-23 07:09 36.085268 -115.140555 0 2189ft 0kts
10-Sep-23 07:11 36.085268 -115.140555 0 2189ft 0kts
10-Sep-23 07:12 36.085268 -115.140555 0 2189ft 0kts
10-Sep-23 07:13 36.085268 -115.140555 0 2189ft 0kts
10-Sep-23 07:13 36.085268 -115.140555 0 2189ft 0kts
10-Sep-23 07:14 36.085268 -115.140555 0 2189ft 0kts
10-Sep-23 07:15 36.085268 -115.140555 0 2189ft 0kts
10-Sep-23 07:16 36.085268 -115.140555 0 2189ft 0kts
10-Sep-23 07:18 36.085268 -115.140555 0 2189ft 0kts
10-Sep-23 07:18 36.085268 -115.140555 0 2189ft 0kts
10-Sep-23 07:19 36.085268 -115.140555 0 2189ft 0kts
10-Sep-23 07:20 36.085268 -115.140555 0 2189ft 0kts
10-Sep-23 07:21 36.085268 -115.140555 0 2189ft 0kts
10-Sep-23 07:22 36.085268 -115.140555 0 2189ft 0kts
10-Sep-23 07:23 36.085268 -115.140555 0 2189ft 0kts
10-Sep-23 07:24 36.085268 -115.140555 0 2189ft 0kts
10-Sep-23 07:25 36.085268 -115.140555 0 2189ft 0kts
10-Sep-23 07:26 36.085268 -115.140555 0 2189ft 0kts
10-Sep-23 07:27 36.085268 -115.140555 0 2189ft 0kts
10-Sep-23 07:28 36.085268 -115.140555 0 2189ft 0kts
10-Sep-23 07:29 36.085268 -115.140555 0 2189ft 0kts
10-Sep-23 07:30 36.085268 -115.140555 0 2189ft 0kts
10-Sep-23 07:31 36.085047 -115.140559 1 2189ft 2kts
10-Sep-23 07:32 36.084240 -115.140648 11 2189ft 2kts
10-Sep-23 07:33 36.083818 -115.140863 45 2189ft 0kts
10-Sep-23 07:34 36.083818 -115.140863 45 2189ft 0kts
10-Sep-23 07:35 36.083818 -115.140863 45 2189ft 0kts
10-Sep-23 07:36 36.083818 -115.140863 45 2189ft 0kts
10-Sep-23 07:37 36.084144 -115.140458 44 2189ft 7kts
10-Sep-23 07:38 36.084442 -115.135403 90 2189ft 20kts
10-Sep-23 07:39 36.080489 -115.132919 178 2189ft 20kts
10-Sep-23 07:40 36.077549 -115.130670 89 2189ft 20kts
10-Sep-23 07:41 36.077668 -115.122628 87 2189ft 17kts
10-Sep-23 07:42 36.076470 -115.121377 236 2189ft 8kts
10-Sep-23 07:43 36.076391 -115.142714 271 2191ft 159kts
10-Sep-23 07:44 36.074250 -115.202084 270 4364ft 202kts
10-Sep-23 07:45 36.052926 -115.273136 210 7259ft 251kts
10-Sep-23 07:46 35.981136 -115.299512 211 8092ft 275kts
10-Sep-23 07:47 35.912382 -115.346223 211 10966ft 307kts
10-Sep-23 07:48 35.876012 -115.440701 284 11011ft 339kts
10-Sep-23 07:49 35.891345 -115.552784 264 11813ft 343kts
10-Sep-23 07:50 35.891073 -115.672393 271 14887ft 356kts
10-Sep-23 07:51 35.893154 -115.796570 271 17544ft 370kts
10-Sep-23 07:52 35.899763 -115.925529 288 19884ft 385kts
10-Sep-23 07:53 35.968862 -116.029980 313 21889ft 403kts
10-Sep-23 07:54 36.049401 -116.128906 312 23625ft 414kts
10-Sep-23 07:55 36.132200 -116.230756 312 25136ft 424kts
10-Sep-23 07:56 36.216160 -116.335417 312 26445ft 433kts
10-Sep-23 07:57 36.301995 -116.442154 314 27584ft 442kts
10-Sep-23 07:58 36.391882 -116.548277 313 28581ft 449kts
10-Sep-23 07:59 36.483007 -116.655140 315 29693ft 450kts
10-Sep-23 08:00 36.575301 -116.759819 315 30826ft 448kts
10-Sep-23 08:01 36.666738 -116.864087 315 31854ft 446kts
10-Sep-23 08:02 36.763216 -116.960633 327 32780ft 448kts
10-Sep-23 08:03 36.873483 -117.033092 329 33625ft 447kts
10-Sep-23 08:04 36.983689 -117.104745 329 34390ft 446kts
10-Sep-23 08:05 37.093881 -117.176104 329 35088ft 444kts
10-Sep-23 08:06 37.203109 -117.247655 329 35721ft 443kts
10-Sep-23 08:07 37.312395 -117.319456 329 36279ft 442kts
10-Sep-23 08:08 37.421715 -117.390124 329 36774ft 442kts
10-Sep-23 08:09 37.531287 -117.461378 329 37229ft 442kts
10-Sep-23 08:10 37.640441 -117.532327 329 37649ft 442kts
10-Sep-23 08:11 37.750029 -117.603581 329 37990ft 443kts
10-Sep-23 08:12 37.859319 -117.675263 329 37997ft 442kts
10-Sep-23 08:13 37.968299 -117.747234 328 37995ft 442kts
10-Sep-23 08:14 38.064072 -117.842906 313 37997ft 437kts
10-Sep-23 08:15 38.152096 -117.949504 314 37997ft 437kts
10-Sep-23 08:16 38.240135 -118.056121 314 37996ft 437kts
10-Sep-23 08:17 38.328549 -118.162239 314 37996ft 437kts
10-Sep-23 08:18 38.416439 -118.269322 313 37996ft 437kts
10-Sep-23 08:19 38.504033 -118.376432 313 37996ft 437kts
10-Sep-23 08:20 38.592014 -118.484013 313 37996ft 437kts
10-Sep-23 08:21 38.679704 -118.591686 313 37996ft 437kts
10-Sep-23 08:22 38.767558 -118.699278 314 37996ft 437kts
10-Sep-23 08:23 38.855247 -118.807073 313 37996ft 437kts
10-Sep-23 08:24 38.942618 -118.915524 313 37996ft 437kts
10-Sep-23 08:25 39.043001 -119.004336 329 37997ft 442kts
10-Sep-23 08:26 39.152100 -119.077861 329 37996ft 442kts
10-Sep-23 08:27 39.260972 -119.151593 329 37996ft 442kts
10-Sep-23 08:28 39.370212 -119.225200 329 37996ft 442kts
10-Sep-23 08:29 39.479114 -119.299077 329 37996ft 442kts
10-Sep-23 08:30 39.587946 -119.373283 329 37996ft 442kts
10-Sep-23 08:31 39.696695 -119.447722 329 37996ft 442kts
10-Sep-23 08:32 39.805751 -119.522643 329 37996ft 442kts
10-Sep-23 08:33 39.914337 -119.597513 329 37997ft 442kts
10-Sep-23 08:34 40.022830 -119.672590 329 37996ft 442kts
10-Sep-23 08:35 40.131696 -119.748198 329 37996ft 442kts
10-Sep-23 08:36 40.240197 -119.823830 329 37996ft 442kts
10-Sep-23 08:37 40.348649 -119.899704 329 37996ft 442kts
10-Sep-23 08:38 40.457302 -119.975999 329 37996ft 442kts
10-Sep-23 08:39 40.565516 -120.052266 328 37996ft 442kts
10-Sep-23 08:40 40.673985 -120.128998 328 37996ft 442kts
10-Sep-23 08:41 40.782326 -120.205923 328 37996ft 442kts
10-Sep-23 08:42 40.890376 -120.282453 326 38128ft 438kts
10-Sep-23 08:43 40.997007 -120.359049 324 38293ft 436kts
10-Sep-23 08:44 41.103255 -120.435463 325 38301ft 434kts
10-Sep-23 08:45 41.209375 -120.511965 324 38301ft 434kts
10-Sep-23 08:46 41.315535 -120.588762 325 38300ft 435kts
10-Sep-23 08:47 41.421903 -120.665994 325 38300ft 435kts
10-Sep-23 08:48 41.528199 -120.743462 325 38300ft 435kts
10-Sep-23 08:49 41.634288 -120.821073 325 38303ft 435kts
10-Sep-23 08:50 41.739945 -120.898660 325 38305ft 436kts
10-Sep-23 08:51 41.846283 -120.977041 324 38303ft 435kts
10-Sep-23 08:52 41.952345 -121.055523 324 38303ft 435kts
10-Sep-23 08:53 42.058256 -121.134210 325 38300ft 434kts
10-Sep-23 08:54 42.164204 -121.213199 325 38296ft 435kts
10-Sep-23 08:55 42.270076 -121.292447 325 38289ft 435kts
10-Sep-23 08:56 42.375895 -121.371965 325 38288ft 435kts
10-Sep-23 08:57 42.481479 -121.451617 325 38294ft 435kts
10-Sep-23 08:58 42.587179 -121.531669 325 38297ft 435kts
10-Sep-23 08:59 42.692841 -121.612006 325 38294ft 435kts
10-Sep-23 09:00 42.798544 -121.692358 325 38293ft 435kts
10-Sep-23 09:01 42.903936 -121.773324 325 38270ft 435kts
10-Sep-23 09:02 43.009305 -121.854547 325 38262ft 434kts
10-Sep-23 09:03 43.114154 -121.935914 326 38261ft 433kts
10-Sep-23 09:04 43.218796 -122.017487 326 38261ft 434kts
10-Sep-23 09:05 43.323993 -122.099079 326 38262ft 434kts
10-Sep-23 09:06 43.428663 -122.181388 326 38258ft 434kts
10-Sep-23 09:07 43.533427 -122.263870 326 38253ft 433kts
10-Sep-23 09:08 43.572924 -122.294921 326 38250ft 433kts
10-Sep-23 09:09 43.572924 -122.294921 326 38250ft 433kts
10-Sep-23 09:10 43.619279 -122.331472 326 38247ft 433kts
10-Sep-23 09:11 43.720802 -122.411791 326 36396ft 406kts
10-Sep-23 09:12 43.822607 -122.492317 326 31308ft 421kts
10-Sep-23 09:13 43.922562 -122.571163 326 29479ft 415kts
10-Sep-23 09:14 44.020673 -122.649615 326 27205ft 392kts
10-Sep-23 09:15 44.116880 -122.726834 327 24958ft 382kts
10-Sep-23 09:16 44.223635 -122.746534 0 24206ft 396kts
10-Sep-23 09:17 44.327080 -122.735823 0 24200ft 368kts
10-Sep-23 09:18 44.430949 -122.725481 0 24200ft 378kts
10-Sep-23 09:19 44.540219 -122.714616 1 24211ft 416kts
10-Sep-23 09:20 44.656039 -122.703054 1 24058ft 415kts
10-Sep-23 09:21 44.767802 -122.691801 1 20152ft 394kts
10-Sep-23 09:22 44.874451 -122.681074 2 16064ft 375kts
10-Sep-23 09:23 44.976414 -122.670757 2 14869ft 370kts
10-Sep-23 09:24 45.078870 -122.660407 3 13307ft 369kts
10-Sep-23 09:25 45.179625 -122.650134 4 8938ft 353kts
10-Sep-23 09:26 45.269144 -122.626372 28 7636ft 323kts
10-Sep-23 09:27 45.333884 -122.567259 34 7291ft 245kts
10-Sep-23 09:28 45.391272 -122.520926 6 5898ft 239kts
10-Sep-23 09:29 45.439335 -122.583705 295 3758ft 252kts
10-Sep-23 09:30 45.467344 -122.666611 294 3500ft 223kts
10-Sep-23 09:31 45.494493 -122.746568 295 3517ft 225kts
10-Sep-23 09:32 45.522064 -122.826044 300 3518ft 218kts
10-Sep-23 09:33 45.562864 -122.885838 315 3463ft 207kts
10-Sep-23 09:34 45.609439 -122.914493 37 2980ft 205kts
10-Sep-23 09:35 45.641319 -122.846215 59 3002ft 204kts
10-Sep-23 09:36 45.660512 -122.776934 100 2986ft 185kts
10-Sep-23 09:37 45.640088 -122.711990 119 2787ft 168kts
10-Sep-23 09:38 45.618004 -122.655177 120 892ft 147kts
10-Sep-23 09:39 45.598206 -122.604269 119 198ft 145kts
10-Sep-23 09:40 45.577818 -122.556576 123 1330ft 166kts
10-Sep-23 09:41 45.586869 -122.494020 38 2738ft 200kts
10-Sep-23 09:42 45.618192 -122.531980 297 2689ft 183kts
10-Sep-23 09:43 45.640303 -122.595823 275 1426ft 161kts
10-Sep-23 09:44 45.615547 -122.640619 181 840ft 154kts
10-Sep-23 09:45 45.594131 -122.594055 117 40ft 134kts
10-Sep-23 09:46 45.586500 -122.576220 196 38ft 7kts
10-Sep-23 09:47 45.587877 -122.581055 301 38ft 26kts
10-Sep-23 09:48 45.589668 -122.585637 299 38ft 23kts

Navigation Log

Ident Type
Flight plan parsing failed, navigation log unavailable